Main page
METAR-TAF:

METAR-TAF

Airports :

Marshall Islands International Airport

Majuro, Marshall Islands

latitude: 07-04N, longitude: 171-17E, elevation: 2 m

Current weather observation

The report was made 8 hours and 21 minutes ago, at 09:50 UTC
Temperature 31°C
Humidity 71%
Pressure 1011 hPa
Visibility: 24.1 km
Few clouds at a height of 1500 ft
Scattered clouds at a height of 5000 ft
Broken clouds at a height of 12000 ft
Overcast at a height of 30000 ft

METAR: PKMJ 210950Z 11013K 15SM FEW015 SCT050 BKN120 OVC300 31/25 A2986

Time: 06:11 (18:11 UTC)

Forecast

The report was made 36 minutes ago, at 17:35 UTC
Forecast valid from 21 at 18 UTC to 22 at 18 UTC
Wind 10 kt from the Southeast
Visibility: 10 km
Scattered clouds at a height of 1500 ft
Broken clouds at a height of 4500 ft
Overcast at a height of 12000 ft
showers in vicinity,

TAF: PKMJ 211735Z 2118/2218 13010KT P6SM VCSH SCT015 BKN045 OVC120

Weather observations and forecasts of more than 4000 airports (METAR and TAF reports).

The available stations are represented by yellow and red dots on the map.

Hover mouse over dot to see the name of the station.

Then click to see weather observations and forecasts.

To change the map : click on the green buttons with a black cross to zoom in, on the green button with a dash to zoom out, or on the green arrows for adjacent maps.


METAR-TAF: